createdAt,value
2018-03-02T00:00:07.214Z,20.20
2018-03-02T00:01:07.199Z,20.70
2018-03-02T00:02:07.185Z,20.70
2018-03-02T00:03:07.169Z,21.40
2018-03-02T00:04:07.153Z,21.80
2018-03-02T00:05:07.140Z,20.60
2018-03-02T00:06:07.125Z,19.80
2018-03-02T00:07:07.109Z,22.30
2018-03-02T00:08:07.094Z,20.50
2018-03-02T00:09:07.078Z,21.50
2018-03-02T00:10:07.062Z,20.50
2018-03-02T00:11:07.048Z,21.20
2018-03-02T00:12:07.034Z,20.40
2018-03-02T00:13:07.068Z,22.00
2018-03-02T00:14:06.999Z,22.10
2018-03-02T00:15:06.984Z,21.10
2018-03-02T00:16:06.967Z,21.50
2018-03-02T00:17:06.952Z,21.40
2018-03-02T00:18:06.940Z,21.70
2018-03-02T00:19:06.922Z,23.10
2018-03-02T00:20:06.906Z,21.30
2018-03-02T00:21:06.893Z,21.30
2018-03-02T00:22:06.878Z,22.00
2018-03-02T00:23:06.864Z,22.30
2018-03-02T00:24:06.846Z,21.20
2018-03-02T00:25:06.831Z,22.20
2018-03-02T00:26:06.817Z,21.50
2018-03-02T00:27:06.801Z,21.70
2018-03-02T00:28:06.783Z,22.00
2018-03-02T00:29:06.765Z,20.20
2018-03-02T00:30:06.749Z,21.70
2018-03-02T00:31:06.736Z,21.50
2018-03-02T00:32:06.721Z,21.30
2018-03-02T00:33:06.703Z,22.30
2018-03-02T00:34:06.688Z,23.00
2018-03-02T00:35:06.675Z,20.80
2018-03-02T00:36:06.656Z,23.10
2018-03-02T00:37:06.643Z,21.50
2018-03-02T00:38:06.629Z,23.10
2018-03-02T00:39:06.613Z,22.50
2018-03-02T00:40:06.599Z,20.70
2018-03-02T00:41:06.582Z,21.60
2018-03-02T00:42:06.566Z,21.20
2018-03-02T00:43:06.556Z,22.60
2018-03-02T00:44:06.541Z,21.00
2018-03-02T00:45:06.520Z,20.40
2018-03-02T00:46:06.502Z,22.50
2018-03-02T00:47:06.489Z,22.40
2018-03-02T00:48:06.503Z,21.70
2018-03-02T00:49:06.459Z,21.30
2018-03-02T00:50:06.443Z,22.10
2018-03-02T00:51:06.429Z,22.10
2018-03-02T00:52:06.412Z,22.30
2018-03-02T00:53:06.392Z,21.80
2018-03-02T00:54:06.377Z,22.10
2018-03-02T00:55:06.363Z,21.20
2018-03-02T00:56:06.347Z,22.20
2018-03-02T00:57:06.330Z,22.40
2018-03-02T00:58:06.313Z,22.20
2018-03-02T00:59:06.300Z,20.80
2018-03-02T01:00:06.282Z,21.40
2018-03-02T01:01:06.271Z,21.60
2018-03-02T01:02:06.255Z,21.90
2018-03-02T01:03:06.239Z,23.70
2018-03-02T01:04:06.223Z,21.90
2018-03-02T01:05:06.211Z,23.60
2018-03-02T01:06:06.198Z,23.30
2018-03-02T01:07:06.179Z,21.00
2018-03-02T01:08:06.165Z,21.50
2018-03-02T01:09:06.143Z,23.50
2018-03-02T01:10:06.131Z,21.00
2018-03-02T01:11:06.111Z,22.80
2018-03-02T01:12:06.095Z,22.40
2018-03-02T01:13:06.079Z,22.10
2018-03-02T01:14:06.065Z,21.60
2018-03-02T01:15:06.050Z,22.90
2018-03-02T01:16:06.034Z,21.30
2018-03-02T01:17:06.021Z,22.50
2018-03-02T01:18:06.004Z,22.60
2018-03-02T01:19:05.990Z,22.40
2018-03-02T01:20:05.974Z,21.70
2018-03-02T01:21:05.956Z,20.90
2018-03-02T01:22:05.941Z,21.30
2018-03-02T01:23:05.925Z,21.20
2018-03-02T01:24:05.908Z,23.40
2018-03-02T01:25:05.892Z,22.40
2018-03-02T01:26:05.875Z,21.60
2018-03-02T01:27:05.859Z,23.90
2018-03-02T01:28:05.843Z,22.60
2018-03-02T01:29:05.828Z,21.70
2018-03-02T01:30:05.812Z,22.20
2018-03-02T01:31:05.797Z,23.40
2018-03-02T01:32:05.780Z,22.80
2018-03-02T01:33:05.767Z,22.00
2018-03-02T01:34:05.752Z,21.70
2018-03-02T01:35:05.737Z,23.30
2018-03-02T01:36:05.719Z,23.40
2018-03-02T01:37:05.704Z,21.60
2018-03-02T01:38:05.688Z,24.20
2018-03-02T01:39:05.672Z,22.00
2018-03-02T01:40:05.656Z,22.80
2018-03-02T01:41:05.637Z,22.50
2018-03-02T01:42:05.622Z,23.10
2018-03-02T01:43:05.608Z,22.20
2018-03-02T01:44:05.594Z,22.10
2018-03-02T01:45:05.574Z,22.00
2018-03-02T01:46:05.559Z,22.70
2018-03-02T01:47:05.541Z,23.60
2018-03-02T01:48:05.526Z,23.40
2018-03-02T01:49:05.512Z,22.80
2018-03-02T01:50:05.497Z,23.10
2018-03-02T01:51:05.481Z,22.90
2018-03-02T01:52:05.466Z,23.10
2018-03-02T01:53:05.445Z,23.30
2018-03-02T01:54:05.433Z,22.30
2018-03-02T01:55:05.421Z,21.60
2018-03-02T01:56:05.397Z,22.70
2018-03-02T01:57:05.384Z,22.30
2018-03-02T01:58:05.369Z,25.60
2018-03-02T01:59:05.353Z,23.50
2018-03-02T02:00:05.338Z,23.40
2018-03-02T02:01:05.322Z,24.00
2018-03-02T02:02:05.307Z,23.40
2018-03-02T02:03:05.289Z,23.90
2018-03-02T02:04:05.274Z,23.20
2018-03-02T02:05:05.255Z,22.60
2018-03-02T02:06:05.238Z,23.30
2018-03-02T02:07:05.226Z,22.60
2018-03-02T02:08:05.207Z,24.60
2018-03-02T02:09:05.191Z,23.20
2018-03-02T02:10:05.175Z,21.60
2018-03-02T02:11:05.159Z,23.10
2018-03-02T02:12:05.142Z,24.00
2018-03-02T02:13:05.130Z,22.80
2018-03-02T02:14:05.116Z,22.80
2018-03-02T02:15:05.100Z,24.00
2018-03-02T02:16:05.082Z,23.80
2018-03-02T02:17:05.066Z,24.20
2018-03-02T02:18:05.051Z,24.20
2018-03-02T02:19:05.035Z,23.70
2018-03-02T02:20:05.018Z,23.60
2018-03-02T02:21:05.003Z,25.30
2018-03-02T02:22:04.984Z,23.30
2018-03-02T02:23:04.968Z,23.70
2018-03-02T02:24:04.956Z,24.00
2018-03-02T02:25:04.936Z,22.10
2018-03-02T02:26:04.921Z,24.40
2018-03-02T02:27:04.905Z,22.90
2018-03-02T02:28:04.888Z,24.40
2018-03-02T02:29:04.875Z,23.40
2018-03-02T02:30:04.875Z,24.60
2018-03-02T02:31:04.845Z,23.50
2018-03-02T02:32:04.828Z,23.60
2018-03-02T02:33:04.813Z,24.90
2018-03-02T02:34:04.798Z,23.80
2018-03-02T02:35:04.781Z,23.60
2018-03-02T02:36:04.766Z,24.40
2018-03-02T02:37:04.745Z,23.50
2018-03-02T02:38:04.730Z,24.80
2018-03-02T02:39:04.715Z,24.70
2018-03-02T02:40:04.698Z,22.50
2018-03-02T02:41:04.682Z,24.60
2018-03-02T02:42:04.666Z,24.50
2018-03-02T02:43:04.650Z,23.00
2018-03-02T02:44:04.634Z,24.70
2018-03-02T02:45:04.623Z,24.90
2018-03-02T02:46:04.609Z,24.80
2018-03-02T02:47:04.589Z,25.30
2018-03-02T02:48:04.572Z,22.00
2018-03-02T02:49:04.557Z,25.70
2018-03-02T02:50:04.542Z,24.50
2018-03-02T02:51:04.525Z,26.40
2018-03-02T02:52:04.510Z,24.10
2018-03-02T02:53:04.495Z,23.30
2018-03-02T02:54:04.537Z,24.30
2018-03-02T02:55:04.460Z,23.20
2018-03-02T02:56:04.445Z,25.80
2018-03-02T02:57:04.429Z,24.80
2018-03-02T02:58:04.413Z,25.80
2018-03-02T02:59:04.399Z,24.90
2018-03-02T03:00:04.387Z,23.70
2018-03-02T03:01:04.363Z,23.00
2018-03-02T03:02:04.347Z,25.00
2018-03-02T03:03:04.336Z,23.30
2018-03-02T03:04:04.316Z,24.80
2018-03-02T03:05:04.300Z,24.40
2018-03-02T03:06:04.284Z,22.60
2018-03-02T03:07:04.267Z,24.40
2018-03-02T03:08:04.251Z,23.60
2018-03-02T03:09:04.238Z,25.10
2018-03-02T03:10:04.222Z,24.20
2018-03-02T03:11:04.208Z,25.50
2018-03-02T03:12:04.190Z,25.30
2018-03-02T03:13:04.173Z,23.20
2018-03-02T03:14:04.158Z,26.40
2018-03-02T03:15:04.142Z,26.20
2018-03-02T03:16:04.127Z,25.00
2018-03-02T03:17:04.107Z,25.40
2018-03-02T03:18:04.091Z,23.90
2018-03-02T03:19:04.079Z,24.10
2018-03-02T03:20:04.059Z,23.30
2018-03-02T03:21:04.042Z,26.40
2018-03-02T03:22:04.037Z,24.70
2018-03-02T03:23:04.011Z,25.80
2018-03-02T03:24:03.995Z,27.10
2018-03-02T03:25:03.988Z,24.80
2018-03-02T03:26:03.968Z,24.60
2018-03-02T03:27:03.950Z,27.50
2018-03-02T03:28:03.933Z,22.60
2018-03-02T03:29:03.918Z,24.60
2018-03-02T03:30:03.905Z,23.70
2018-03-02T03:31:03.887Z,27.30
2018-03-02T03:32:03.869Z,25.40
2018-03-02T03:33:03.850Z,26.00
2018-03-02T03:34:03.835Z,23.60
2018-03-02T03:35:03.819Z,24.60
2018-03-02T03:36:03.801Z,24.10
2018-03-02T03:37:03.785Z,24.70
2018-03-02T03:38:03.771Z,26.20
2018-03-02T03:39:03.753Z,26.20
2018-03-02T03:40:03.741Z,25.80
2018-03-02T03:41:03.723Z,25.80
2018-03-02T03:42:03.707Z,22.60
2018-03-02T03:43:03.691Z,26.50
2018-03-02T03:44:03.675Z,25.30
2018-03-02T03:45:03.657Z,25.30
2018-03-02T03:46:03.642Z,23.00
2018-03-02T03:47:03.626Z,24.40
2018-03-02T03:48:03.610Z,25.20
2018-03-02T03:49:03.592Z,25.30
2018-03-02T03:50:03.573Z,25.00
2018-03-02T03:51:03.558Z,26.40
2018-03-02T03:52:03.541Z,26.10
2018-03-02T03:53:03.524Z,25.90
2018-03-02T03:54:03.509Z,25.50
2018-03-02T03:55:03.493Z,22.80
2018-03-02T03:56:03.477Z,25.00
2018-03-02T03:57:03.462Z,24.50
2018-03-02T03:58:03.447Z,25.70
2018-03-02T03:59:03.429Z,25.80
2018-03-02T04:00:03.415Z,26.60
2018-03-02T04:01:03.398Z,22.70
2018-03-02T04:02:03.382Z,27.70
2018-03-02T04:03:03.364Z,26.70
2018-03-02T04:04:03.347Z,26.80
2018-03-02T04:05:03.328Z,27.50
2018-03-02T04:06:03.313Z,25.40
2018-03-02T04:07:03.296Z,26.20
2018-03-02T04:08:03.280Z,25.60
2018-03-02T04:09:03.263Z,23.10
2018-03-02T04:10:03.247Z,23.90
2018-03-02T04:11:03.233Z,26.20
2018-03-02T04:12:03.215Z,25.90
2018-03-02T04:13:03.202Z,25.50
2018-03-02T04:14:03.184Z,26.00
2018-03-02T04:15:03.176Z,25.10
2018-03-02T04:16:03.151Z,26.90
2018-03-02T04:17:03.135Z,26.30
2018-03-02T04:18:03.119Z,26.70
2018-03-02T04:19:03.103Z,26.90
2018-03-02T04:20:03.085Z,26.60
2018-03-02T04:21:03.067Z,26.20
2018-03-02T04:22:03.052Z,25.50
2018-03-02T04:23:03.038Z,25.10
2018-03-02T04:24:03.018Z,25.50
2018-03-02T04:25:03.001Z,27.20
2018-03-02T04:26:02.986Z,26.30
2018-03-02T04:27:02.969Z,27.50
2018-03-02T04:28:02.953Z,28.20
2018-03-02T04:29:02.939Z,28.20
2018-03-02T04:30:02.923Z,26.20
2018-03-02T04:31:02.907Z,28.70
2018-03-02T04:32:02.890Z,25.50
2018-03-02T04:33:02.875Z,26.30
2018-03-02T04:34:02.859Z,26.00
2018-03-02T04:35:02.844Z,22.80
2018-03-02T04:36:02.826Z,27.30
2018-03-02T04:37:02.807Z,27.10
2018-03-02T04:38:02.792Z,26.80
2018-03-02T04:39:02.775Z,27.60
2018-03-02T04:40:02.758Z,29.10
2018-03-02T04:41:02.742Z,26.40
2018-03-02T04:42:02.726Z,26.40
2018-03-02T04:43:02.710Z,27.30
2018-03-02T04:44:02.694Z,25.40
2018-03-02T04:45:02.681Z,25.90
2018-03-02T04:46:02.665Z,28.10
2018-03-02T04:47:02.648Z,28.40
2018-03-02T04:48:02.632Z,27.00
2018-03-02T04:49:02.617Z,26.50
2018-03-02T04:50:02.600Z,28.10
2018-03-02T04:51:02.584Z,25.40
2018-03-02T04:52:02.568Z,25.20
2018-03-02T04:53:02.548Z,26.60
2018-03-02T04:54:02.534Z,27.30
2018-03-02T04:55:02.518Z,26.90
2018-03-02T04:56:02.500Z,28.60
2018-03-02T04:57:02.490Z,27.40
2018-03-02T04:58:02.469Z,25.60
2018-03-02T04:59:02.453Z,28.60
2018-03-02T05:00:02.436Z,27.20
2018-03-02T05:01:02.423Z,28.20
2018-03-02T05:02:02.407Z,27.50
2018-03-02T05:03:02.391Z,27.60
2018-03-02T05:04:02.375Z,27.00
2018-03-02T05:05:02.379Z,30.20
2018-03-02T05:06:02.340Z,28.10
2018-03-02T05:07:02.325Z,25.40
2018-03-02T05:08:02.307Z,27.00
2018-03-02T05:09:02.294Z,27.00
2018-03-02T05:10:02.279Z,26.10
2018-03-02T05:11:02.268Z,29.30
2018-03-02T05:12:02.247Z,29.60
2018-03-02T05:13:02.231Z,29.10
2018-03-02T05:14:02.215Z,26.80
2018-03-02T05:15:02.198Z,28.80
2018-03-02T05:16:02.182Z,27.20
2018-03-02T05:17:02.163Z,27.40
2018-03-02T05:18:02.147Z,27.20
2018-03-02T05:19:02.134Z,27.70
2018-03-02T05:20:02.116Z,26.90
2018-03-02T05:21:02.132Z,29.30
2018-03-02T05:22:02.083Z,27.10
2018-03-02T05:23:02.067Z,29.80
2018-03-02T05:24:02.050Z,28.10
2018-03-02T05:25:02.037Z,27.80
2018-03-02T05:26:02.021Z,28.20
2018-03-02T05:27:02.006Z,28.50
2018-03-02T05:28:01.988Z,29.60
2018-03-02T05:29:01.972Z,28.50
2018-03-02T05:30:01.956Z,29.20
2018-03-02T05:31:01.941Z,29.80
2018-03-02T05:32:01.924Z,28.50
2018-03-02T05:33:01.905Z,28.10
2018-03-02T05:34:01.889Z,27.40
2018-03-02T05:35:01.872Z,29.40
2018-03-02T05:36:01.857Z,29.00
2018-03-02T05:37:01.840Z,29.20
2018-03-02T05:38:01.824Z,27.70
2018-03-02T05:39:01.808Z,27.70
2018-03-02T05:40:01.791Z,28.90
2018-03-02T05:41:01.779Z,28.60
2018-03-02T05:42:01.762Z,29.30
2018-03-02T05:43:01.747Z,29.20
2018-03-02T05:44:01.730Z,28.70
2018-03-02T05:45:01.713Z,30.20
2018-03-02T05:46:01.696Z,29.10
2018-03-02T05:47:01.686Z,29.80
2018-03-02T05:48:01.664Z,30.00
2018-03-02T05:49:01.645Z,30.50
2018-03-02T05:50:01.629Z,27.90
2018-03-02T05:51:01.616Z,28.30
2018-03-02T05:52:01.597Z,29.40
2018-03-02T05:53:01.580Z,28.80
2018-03-02T05:54:01.564Z,28.30
2018-03-02T05:55:01.548Z,30.70
2018-03-02T05:56:01.532Z,30.80
2018-03-02T05:57:01.521Z,28.60
2018-03-02T05:58:01.502Z,30.10
2018-03-02T05:59:01.487Z,30.40
2018-03-02T06:00:01.501Z,29.10
2018-03-02T06:01:01.454Z,31.00
2018-03-02T06:02:01.438Z,30.20
2018-03-02T06:03:01.454Z,32.00
2018-03-02T06:04:01.406Z,27.80
2018-03-02T06:05:01.387Z,32.90
2018-03-02T06:06:01.372Z,29.50
2018-03-02T06:07:01.356Z,31.20
2018-03-02T06:08:01.339Z,28.60
2018-03-02T06:09:01.328Z,30.70
2018-03-02T06:10:01.309Z,31.70
2018-03-02T06:11:01.293Z,30.10
2018-03-02T06:12:01.277Z,28.80
2018-03-02T06:13:01.257Z,30.90
2018-03-02T06:14:01.245Z,30.70
2018-03-02T06:15:01.226Z,30.40
2018-03-02T06:16:01.209Z,31.80
2018-03-02T06:17:01.192Z,31.70
2018-03-02T06:18:01.176Z,31.00
2018-03-02T06:19:01.162Z,31.00
2018-03-02T06:20:01.144Z,29.20
2018-03-02T06:21:01.132Z,30.10
2018-03-02T06:22:01.116Z,32.00
2018-03-02T06:23:01.102Z,31.00
2018-03-02T06:24:01.085Z,30.00
2018-03-02T06:25:01.068Z,31.00
2018-03-02T06:26:01.053Z,31.20
2018-03-02T06:27:01.036Z,31.40
2018-03-02T06:28:01.019Z,28.80
2018-03-02T06:29:01.001Z,31.60
2018-03-02T06:30:00.984Z,31.00
2018-03-02T06:31:00.969Z,28.30
2018-03-02T06:32:00.953Z,30.20
2018-03-02T06:33:00.937Z,29.60
2018-03-02T06:34:00.922Z,30.80
2018-03-02T06:35:00.905Z,29.40
2018-03-02T06:36:00.890Z,29.70
2018-03-02T06:37:00.928Z,29.50
2018-03-02T06:38:00.860Z,31.80
2018-03-02T06:39:00.845Z,30.50
2018-03-02T06:40:00.827Z,30.60
2018-03-02T06:41:00.812Z,29.40
2018-03-02T06:42:00.795Z,31.50
2018-03-02T06:43:00.780Z,31.80
2018-03-02T06:44:00.763Z,31.30
2018-03-02T06:45:00.745Z,29.90
2018-03-02T06:46:00.730Z,32.40
2018-03-02T06:47:00.713Z,30.30
2018-03-02T06:48:00.695Z,31.60
2018-03-02T06:49:00.680Z,29.90
2018-03-02T06:50:00.666Z,30.40
2018-03-02T06:51:00.652Z,32.30
2018-03-02T06:52:00.633Z,32.00
2018-03-02T06:53:00.620Z,30.60
2018-03-02T06:54:00.613Z,32.50
2018-03-02T06:55:00.591Z,30.80
2018-03-02T06:56:00.574Z,30.70
2018-03-02T06:57:00.558Z,32.60
2018-03-02T06:58:00.541Z,30.40
2018-03-02T06:59:00.526Z,31.30
2018-03-02T07:00:00.510Z,32.90
2018-03-02T07:01:00.493Z,31.40
2018-03-02T07:02:00.477Z,30.80
2018-03-02T07:03:00.462Z,32.30
2018-03-02T07:04:00.446Z,32.80
2018-03-02T07:05:00.431Z,32.40
2018-03-02T07:06:00.416Z,34.20
2018-03-02T07:07:00.402Z,33.90
2018-03-02T07:08:00.387Z,34.10
2018-03-02T07:09:00.374Z,34.20
2018-03-02T07:10:00.363Z,35.80
2018-03-02T07:11:00.346Z,35.90
2018-03-02T07:12:00.332Z,36.20
2018-03-02T07:13:00.315Z,35.70
2018-03-02T07:14:00.301Z,34.70
2018-03-02T07:15:00.287Z,35.30
2018-03-02T07:16:00.278Z,35.50
2018-03-02T07:17:00.261Z,36.40
2018-03-02T07:18:00.249Z,36.00
2018-03-02T07:19:00.235Z,36.10
2018-03-02T07:20:00.221Z,35.50
2018-03-02T07:21:00.209Z,36.00
2018-03-02T07:22:00.194Z,35.70
2018-03-02T07:23:00.180Z,35.00
2018-03-02T07:24:00.167Z,35.50
2018-03-02T07:25:00.149Z,36.10
2018-03-02T07:26:00.135Z,34.90
2018-03-02T07:27:00.122Z,32.60
2018-03-02T07:28:00.107Z,33.10
2018-03-02T07:29:00.092Z,35.30
2018-03-02T07:30:00.081Z,35.60
2018-03-02T07:31:00.069Z,36.00
2018-03-02T07:32:00.052Z,35.30
2018-03-02T07:33:00.045Z,33.20
2018-03-02T07:34:00.027Z,36.00
2018-03-02T07:35:00.013Z,33.80
2018-03-02T07:35:59.997Z,35.70
2018-03-02T07:36:59.987Z,34.90
2018-03-02T07:37:59.971Z,34.90
2018-03-02T07:38:59.958Z,34.50
2018-03-02T07:39:59.944Z,36.90
2018-03-02T07:40:59.927Z,35.40
2018-03-02T07:41:59.915Z,35.20
2018-03-02T07:42:59.901Z,36.80
2018-03-02T07:43:59.888Z,34.60
2018-03-02T07:44:59.875Z,35.40
2018-03-02T07:45:59.860Z,35.70
2018-03-02T07:46:59.847Z,36.20
2018-03-02T07:47:59.833Z,36.00
2018-03-02T07:48:59.822Z,36.60
2018-03-02T07:49:59.809Z,36.10
2018-03-02T07:50:59.796Z,36.10
2018-03-02T07:51:59.782Z,34.80
2018-03-02T07:52:59.769Z,36.50
2018-03-02T07:53:59.757Z,36.60
2018-03-02T07:54:59.744Z,37.30
2018-03-02T07:55:59.731Z,33.30
2018-03-02T07:56:59.726Z,36.20
2018-03-02T07:57:59.700Z,39.20
2018-03-02T07:58:59.692Z,34.80
2018-03-02T07:59:59.675Z,37.00
2018-03-02T08:00:59.662Z,36.30
2018-03-02T08:01:59.650Z,35.20
2018-03-02T08:02:59.638Z,37.70
2018-03-02T08:03:59.623Z,37.80
2018-03-02T08:04:59.615Z,37.80
2018-03-02T08:05:59.602Z,34.20
2018-03-02T08:06:59.590Z,37.00
2018-03-02T08:07:59.576Z,37.00
2018-03-02T08:08:59.564Z,36.20
2018-03-02T08:09:59.551Z,36.70
2018-03-02T08:10:59.540Z,36.80
2018-03-02T08:11:59.525Z,34.90
2018-03-02T08:12:59.510Z,36.10
2018-03-02T08:13:59.498Z,33.90
2018-03-02T08:14:59.490Z,36.20
2018-03-02T08:15:59.472Z,35.20
2018-03-02T08:16:59.460Z,35.90
2018-03-02T08:17:59.448Z,37.60
2018-03-02T08:18:59.435Z,37.50
2018-03-02T08:19:59.422Z,37.30
2018-03-02T08:20:59.415Z,39.00
2018-03-02T08:21:59.401Z,38.10
2018-03-02T08:22:59.389Z,38.90
2018-03-02T08:23:59.377Z,37.80
2018-03-02T08:24:59.364Z,39.40
2018-03-02T08:25:59.417Z,39.40
2018-03-02T08:26:59.343Z,39.70
2018-03-02T08:27:59.329Z,39.70
2018-03-02T08:28:59.316Z,40.10
2018-03-02T08:29:59.305Z,40.10
2018-03-02T08:30:59.293Z,40.70
2018-03-02T08:31:59.283Z,37.60
2018-03-02T08:32:59.271Z,37.40
2018-03-02T08:33:59.264Z,40.10
2018-03-02T08:34:59.253Z,38.40
2018-03-02T08:35:59.239Z,40.50
2018-03-02T08:36:59.232Z,40.10
2018-03-02T08:37:59.224Z,40.70
2018-03-02T08:38:59.211Z,39.30
2018-03-02T08:39:59.200Z,40.10
2018-03-02T08:40:59.190Z,39.80
2018-03-02T08:41:59.183Z,39.30
2018-03-02T08:42:59.171Z,39.50
2018-03-02T08:43:59.160Z,38.60
2018-03-02T08:44:59.148Z,38.60
2018-03-02T08:45:59.139Z,40.70
2018-03-02T08:46:59.140Z,40.00
2018-03-02T08:47:59.118Z,38.90
2018-03-02T08:48:59.111Z,38.40
2018-03-02T08:49:59.099Z,39.50
2018-03-02T08:50:59.089Z,38.50
2018-03-02T08:51:59.092Z,40.90
2018-03-02T08:52:59.075Z,39.50
2018-03-02T08:53:59.062Z,38.60
2018-03-02T08:54:59.053Z,40.00
2018-03-02T08:55:59.044Z,40.20
2018-03-02T08:56:59.033Z,40.90
2018-03-02T08:57:59.025Z,40.50
2018-03-02T08:58:59.018Z,38.90
2018-03-02T08:59:59.004Z,38.00
2018-03-02T09:00:58.992Z,39.10
2018-03-02T09:01:58.981Z,39.80
2018-03-02T09:02:58.973Z,39.10
2018-03-02T09:03:58.962Z,39.50
2018-03-02T09:04:58.962Z,39.80
2018-03-02T09:05:58.943Z,38.90
2018-03-02T09:06:58.933Z,40.80
2018-03-02T09:07:58.923Z,40.10
2018-03-02T09:08:58.918Z,38.70
2018-03-02T09:09:58.907Z,38.00
2018-03-02T09:10:58.897Z,37.00
2018-03-02T09:11:58.887Z,37.20
2018-03-02T09:12:58.877Z,38.20
2018-03-02T09:13:58.868Z,37.50
2018-03-02T09:14:58.858Z,36.80
2018-03-02T09:15:58.848Z,38.20
2018-03-02T09:16:58.836Z,37.90
2018-03-02T09:17:58.826Z,36.80
2018-03-02T09:18:58.817Z,37.50
2018-03-02T09:19:58.806Z,36.50
2018-03-02T09:20:58.801Z,37.80
2018-03-02T09:21:58.792Z,37.70
2018-03-02T09:22:58.779Z,38.70
2018-03-02T09:23:58.768Z,37.40
2018-03-02T09:24:58.756Z,38.10
2018-03-02T09:25:58.745Z,37.80
2018-03-02T09:26:58.736Z,38.60
2018-03-02T09:27:58.725Z,38.50
2018-03-02T09:28:58.716Z,38.40
2018-03-02T09:29:58.717Z,39.30
2018-03-02T09:30:58.697Z,39.80
2018-03-02T09:31:58.686Z,37.30
2018-03-02T09:32:58.678Z,39.90
2018-03-02T09:33:58.668Z,38.20
2018-03-02T09:34:58.661Z,39.00
2018-03-02T09:35:58.647Z,38.20
2018-03-02T09:36:58.638Z,40.40
2018-03-02T09:37:58.628Z,39.70
2018-03-02T09:38:58.619Z,39.50
2018-03-02T09:39:58.607Z,38.20
2018-03-02T09:40:58.595Z,38.80
2018-03-02T09:41:58.585Z,39.20
2018-03-02T09:42:58.576Z,37.40
2018-03-02T09:43:58.569Z,37.90
2018-03-02T09:44:58.554Z,37.60
2018-03-02T09:45:58.545Z,38.00
2018-03-02T09:46:58.537Z,38.70
2018-03-02T09:47:58.525Z,39.00
2018-03-02T09:48:58.519Z,38.10
2018-03-02T09:49:58.508Z,38.50
2018-03-02T09:50:58.500Z,38.40
2018-03-02T09:51:58.487Z,39.50
2018-03-02T09:52:58.478Z,38.30
2018-03-02T09:53:58.470Z,38.50
2018-03-02T09:54:58.456Z,39.20
2018-03-02T09:55:58.452Z,38.60
2018-03-02T09:56:58.436Z,39.70
2018-03-02T09:57:58.423Z,37.90
2018-03-02T09:58:58.413Z,40.10
2018-03-02T09:59:58.402Z,38.90
2018-03-02T10:00:58.391Z,39.60
2018-03-02T10:01:58.385Z,38.60
2018-03-02T10:02:58.371Z,39.10
2018-03-02T10:03:58.360Z,39.20
2018-03-02T10:04:58.353Z,40.50
2018-03-02T10:05:58.355Z,38.10
2018-03-02T10:06:58.332Z,37.90
2018-03-02T10:07:58.322Z,40.80
2018-03-02T10:08:58.312Z,38.90
2018-03-02T10:09:58.301Z,39.70
2018-03-02T10:10:58.290Z,38.90
2018-03-02T10:11:58.279Z,39.00
2018-03-02T10:12:58.266Z,39.10
2018-03-02T10:13:58.256Z,37.20
2018-03-02T10:14:58.246Z,39.00
2018-03-02T10:15:58.235Z,38.30
2018-03-02T10:16:58.225Z,38.90
2018-03-02T10:17:58.215Z,39.60
2018-03-02T10:18:58.205Z,38.50
2018-03-02T10:19:58.194Z,40.40
2018-03-02T10:20:58.187Z,40.30
2018-03-02T10:21:58.177Z,39.90
2018-03-02T10:22:58.171Z,40.30
2018-03-02T10:23:58.156Z,39.40
2018-03-02T10:24:58.143Z,39.80
2018-03-02T10:25:58.134Z,38.90
2018-03-02T10:26:58.122Z,39.70
2018-03-02T10:27:58.120Z,39.00
2018-03-02T10:28:58.106Z,37.40
2018-03-02T10:29:58.097Z,38.50
2018-03-02T10:30:58.086Z,40.10
2018-03-02T10:31:58.077Z,39.90
2018-03-02T10:32:58.069Z,40.80
2018-03-02T10:33:58.057Z,40.70
2018-03-02T10:34:58.046Z,40.70
2018-03-02T10:35:58.035Z,39.70
2018-03-02T10:36:58.023Z,40.10
2018-03-02T10:37:58.014Z,39.30
2018-03-02T10:38:58.005Z,41.40
2018-03-02T10:39:57.994Z,39.40
2018-03-02T10:40:57.985Z,39.50
2018-03-02T10:41:57.975Z,39.80
2018-03-02T10:42:57.967Z,39.70
2018-03-02T10:43:57.955Z,39.20
2018-03-02T10:44:57.948Z,39.80
2018-03-02T10:45:57.939Z,38.90
2018-03-02T10:46:57.929Z,39.90
2018-03-02T10:47:57.920Z,39.90
2018-03-02T10:48:57.910Z,39.60
2018-03-02T10:49:57.900Z,41.00
2018-03-02T10:50:57.891Z,40.80
2018-03-02T10:51:57.880Z,41.20
2018-03-02T10:52:57.869Z,42.30
2018-03-02T10:53:57.859Z,40.20
2018-03-02T10:54:57.851Z,40.20
2018-03-02T10:55:57.841Z,40.30
2018-03-02T10:56:57.832Z,40.60
2018-03-02T10:57:57.829Z,38.10
2018-03-02T10:58:57.814Z,40.40
2018-03-02T10:59:57.803Z,40.50
2018-03-02T11:00:57.799Z,39.40
2018-03-02T11:01:57.789Z,40.30
2018-03-02T11:02:57.780Z,39.50
2018-03-02T11:03:57.770Z,39.40
2018-03-02T11:04:57.760Z,39.90
2018-03-02T11:05:57.753Z,40.30
2018-03-02T11:06:57.746Z,40.80
2018-03-02T11:07:57.763Z,41.10
2018-03-02T11:08:57.722Z,39.60
2018-03-02T11:09:57.715Z,39.70
2018-03-02T11:10:57.706Z,39.00
2018-03-02T11:11:57.695Z,40.80
2018-03-02T11:12:57.687Z,38.60
2018-03-02T11:13:57.678Z,39.70
2018-03-02T11:14:57.669Z,39.90
2018-03-02T11:15:57.660Z,39.40
2018-03-02T11:16:57.655Z,39.10
2018-03-02T11:17:57.644Z,39.60
2018-03-02T11:18:57.638Z,39.70
2018-03-02T11:19:57.626Z,37.70
2018-03-02T11:20:57.617Z,39.40
2018-03-02T11:21:57.608Z,39.60
2018-03-02T11:22:57.603Z,39.50
2018-03-02T11:23:57.590Z,38.00
2018-03-02T11:24:57.579Z,38.90
2018-03-02T11:25:57.571Z,38.50
2018-03-02T11:26:57.561Z,40.00
2018-03-02T11:27:57.551Z,39.60
2018-03-02T11:28:57.582Z,37.40
2018-03-02T11:29:57.535Z,38.70
2018-03-02T11:30:57.527Z,38.60
2018-03-02T11:31:57.516Z,37.60
2018-03-02T11:32:57.504Z,39.40
2018-03-02T11:33:57.494Z,38.70
2018-03-02T11:34:57.485Z,38.80
2018-03-02T11:35:57.475Z,39.70
2018-03-02T11:36:57.466Z,37.20
2018-03-02T11:37:57.463Z,38.50
2018-03-02T11:38:57.446Z,38.20
2018-03-02T11:39:57.437Z,39.20
2018-03-02T11:40:57.432Z,39.40
2018-03-02T11:41:57.422Z,36.80
2018-03-02T11:42:57.412Z,37.60
2018-03-02T11:43:57.403Z,38.60
2018-03-02T11:44:57.393Z,37.20
2018-03-02T11:45:57.384Z,38.90
2018-03-02T11:46:57.402Z,38.60
2018-03-02T11:47:57.365Z,38.60
2018-03-02T11:48:57.354Z,39.60
2018-03-02T11:49:57.342Z,38.40
2018-03-02T11:50:57.335Z,38.70
2018-03-02T11:51:57.324Z,38.50
2018-03-02T11:52:57.315Z,38.00
2018-03-02T11:53:57.307Z,38.20
2018-03-02T11:54:57.297Z,39.60
2018-03-02T11:55:57.286Z,40.00
2018-03-02T11:56:57.279Z,38.60
2018-03-02T11:57:57.275Z,39.20
2018-03-02T11:58:57.297Z,39.80
2018-03-02T11:59:57.251Z,37.10
2018-03-02T12:00:57.242Z,39.20
2018-03-02T12:01:57.233Z,38.20
2018-03-02T12:02:57.224Z,39.20
2018-03-02T12:03:57.212Z,39.50
2018-03-02T12:04:57.200Z,38.40
2018-03-02T12:05:57.191Z,38.60
2018-03-02T12:06:57.181Z,38.60
2018-03-02T12:07:57.170Z,39.10
2018-03-02T12:08:57.161Z,40.50
2018-03-02T12:09:57.152Z,38.90
2018-03-02T12:10:57.142Z,39.20
2018-03-02T12:11:57.132Z,38.20
2018-03-02T12:12:57.124Z,39.00
2018-03-02T12:13:57.116Z,39.00
2018-03-02T12:14:57.106Z,38.40
2018-03-02T12:15:57.095Z,37.10
2018-03-02T12:16:57.134Z,39.00
2018-03-02T12:17:57.076Z,38.20
2018-03-02T12:18:57.066Z,39.10
2018-03-02T12:19:57.053Z,40.20
2018-03-02T12:20:57.041Z,38.20
2018-03-02T12:21:57.032Z,36.70
2018-03-02T12:22:57.022Z,38.60
2018-03-02T12:23:57.014Z,38.40
2018-03-02T12:24:57.001Z,37.10
2018-03-02T12:25:56.991Z,37.20
2018-03-02T12:26:56.981Z,37.30
2018-03-02T12:27:56.971Z,37.70
2018-03-02T12:28:56.964Z,38.40
2018-03-02T12:29:56.954Z,38.60
2018-03-02T12:30:56.949Z,37.50
2018-03-02T12:31:56.934Z,38.00
2018-03-02T12:32:56.923Z,37.80
2018-03-02T12:33:56.913Z,36.90
2018-03-02T12:34:56.903Z,36.10
2018-03-02T12:35:56.893Z,38.40
2018-03-02T12:36:56.880Z,38.30
2018-03-02T12:37:56.869Z,37.00
2018-03-02T12:38:56.862Z,36.50
2018-03-02T12:39:56.848Z,37.80
2018-03-02T12:40:56.838Z,37.50
2018-03-02T12:41:56.832Z,38.00
2018-03-02T12:42:56.818Z,36.90
2018-03-02T12:43:56.808Z,38.70
2018-03-02T12:44:56.799Z,37.40
2018-03-02T12:45:56.788Z,37.80
2018-03-02T12:46:56.779Z,37.90
2018-03-02T12:47:56.767Z,37.70
2018-03-02T12:48:56.757Z,38.00
2018-03-02T12:49:56.784Z,37.60
2018-03-02T12:50:56.737Z,39.00
2018-03-02T12:51:56.724Z,36.80